Time;durP1;ratioP1;P1;durP2;ratioP2;P2;SDS_P1;SDS_P2;PMS_P1;PMS_P2;Temp;Humidity;BMP_temperature;BMP_pressure;BME280_temperature;BME280_humidity;BME280_pressure;Samples;Min_cycle;Max_cycle;Signal;HPM_P1;HPM_P2
2022/11/25 00:01:27;;;;;;;20.42;7.15;;;;;;;3.64;58.17;101076.47;4990055;28;20057;-75
2022/11/25 00:03:54;;;;;;;13.02;5.57;;;;;;;3.91;57.45;101080.53;5010490;28;20425;-75
2022/11/25 00:06:25;;;;;;;17.70;6.90;;;;;;;3.94;56.74;101077.06;5006216;28;20186;-75
2022/11/25 00:08:55;;;;;;;16.10;7.22;;;;;;;3.91;57.06;101072.78;5007484;28;20039;-74
2022/11/25 00:11:21;;;;;;;17.33;7.03;;;;;;;3.70;58.05;101079.00;4992706;28;20144;-74
2022/11/25 00:13:47;;;;;;;24.35;6.68;;;;;;;3.88;56.82;101067.66;4992043;28;20069;-75
2022/11/25 00:16:18;;;;;;;16.00;5.72;;;;;;;3.94;56.57;101067.59;4993392;28;20570;-75
2022/11/25 00:18:49;;;;;;;23.67;6.95;;;;;;;3.85;57.25;101067.69;5007542;28;20036;-75
2022/11/25 00:21:18;;;;;;;16.75;6.43;;;;;;;3.77;57.54;101064.31;5006617;28;20055;-75
2022/11/25 00:23:44;;;;;;;13.35;5.88;;;;;;;3.69;57.44;101066.09;4995340;28;20033;-73
2022/11/25 00:26:11;;;;;;;12.40;5.88;;;;;;;3.73;57.47;101062.63;4979423;28;20085;-74
2022/11/25 00:28:37;;;;;;;21.75;6.32;;;;;;;3.72;57.00;101061.75;5006313;28;20095;-76
2022/11/25 00:31:08;;;;;;;21.92;6.03;;;;;;;3.68;57.21;101056.63;4996216;28;20597;-75
2022/11/25 00:33:33;;;;;;;17.43;5.43;;;;;;;3.93;56.06;101060.69;5007689;28;20415;-73
2022/11/25 00:36:01;;;;;;;17.45;6.35;;;;;;;3.80;56.73;101053.94;4982497;28;20054;-76
2022/11/25 00:38:27;;;;;;;10.73;5.10;;;;;;;3.91;56.14;101046.94;4977237;28;20037;-73
2022/11/25 00:46:26;;;;;;;23.73;6.53;;;;;;;3.93;56.51;101050.34;5006525;28;20132;-67
2022/11/25 00:48:51;;;;;;;16.85;4.78;;;;;;;3.83;56.47;101046.16;4988705;28;20119;-68
2022/11/25 00:51:17;;;;;;;19.50;5.80;;;;;;;3.96;56.05;101055.53;4977782;28;20466;-67
2022/11/25 00:53:43;;;;;;;13.05;5.68;;;;;;;3.83;56.32;101045.28;4993908;28;20053;-68
2022/11/25 00:56:15;;;;;;;16.10;5.88;;;;;;;3.98;56.34;101051.19;4994272;28;20631;-68
2022/11/25 00:58:42;;;;;;;19.10;5.88;;;;;;;4.07;56.03;101052.81;5008725;28;20022;-68
2022/11/25 01:01:08;;;;;;;19.13;4.78;;;;;;;3.77;56.69;101046.22;5004777;28;20041;-67
2022/11/25 01:03:35;;;;;;;10.43;5.55;;;;;;;4.07;55.97;101046.78;5005382;28;20114;-68
2022/11/25 01:06:07;;;;;;;13.18;4.97;;;;;;;4.30;55.04;101051.72;5006641;28;20258;-70
2022/11/25 01:08:33;;;;;;;;;;;;;;;4.29;55.12;101037.91;4985523;28;20091;-68
2022/11/25 01:11:00;;;;;;;20.80;4.88;;;;;;;4.32;54.62;101043.06;4988057;28;19925;-69
2022/11/25 01:13:25;;;;;;;18.08;5.18;;;;;;;4.18;55.63;101044.94;4993289;28;20069;-68
2022/11/25 01:15:50;;;;;;;16.45;4.85;;;;;;;4.13;55.28;101036.38;4992320;28;20328;-69
2022/11/25 01:18:18;;;;;;;11.60;3.85;;;;;;;4.28;54.88;101038.81;5006988;28;20057;-68
2022/11/25 01:20:44;;;;;;;15.02;4.95;;;;;;;4.41;54.24;101035.19;4991870;28;20077;-69
2022/11/25 01:23:09;;;;;;;13.48;4.88;;;;;;;4.38;54.33;101037.81;4990886;28;20432;-69
2022/11/25 01:25:39;;;;;;;20.60;5.07;;;;;;;4.35;54.14;101024.91;4977185;28;20560;-69
2022/11/25 01:28:06;;;;;;;16.25;5.03;;;;;;;4.12;55.10;101032.94;5003475;28;20393;-69
2022/11/25 01:30:32;;;;;;;16.38;4.78;;;;;;;4.37;54.36;101028.34;5006756;28;20068;-69
2022/11/25 01:32:58;;;;;;;16.90;5.63;;;;;;;4.15;54.93;101034.63;4979289;28;20218;-69
2022/11/25 01:35:25;;;;;;;14.02;4.53;;;;;;;4.25;54.22;101041.41;4993261;28;20581;-69
2022/11/25 01:37:50;;;;;;;13.40;4.38;;;;;;;4.20;54.77;101038.03;5004249;28;20124;-69
2022/11/25 01:40:16;;;;;;;14.35;4.00;;;;;;;3.76;55.97;101032.44;5005323;28;20526;-68
2022/11/25 01:42:44;;;;;;;13.95;3.97;;;;;;;4.10;54.93;101045.03;4994024;28;20032;-74
2022/11/25 01:45:22;;;;;;;12.35;4.72;;;;;;;4.39;54.25;101049.88;5005506;28;20053;-72
2022/11/25 01:47:55;;;;;;;17.50;5.22;;;;;;;4.46;54.12;101049.81;4985475;28;20061;-69
2022/11/25 01:50:24;;;;;;;11.55;4.85;;;;;;;4.53;53.96;101046.28;5007216;28;20060;-70
2022/11/25 01:52:52;;;;;;;13.82;4.20;;;;;;;4.28;54.45;101037.94;4987658;28;20049;-69
2022/11/25 01:55:29;;;;;;;13.57;3.53;;;;;;;4.64;53.90;101034.06;4990972;28;20292;-70
2022/11/25 01:58:30;;;;;;;12.98;4.20;;;;;;;4.69;53.25;101031.41;4991050;28;20029;-70
2022/11/25 02:00:55;;;;;;;14.80;4.65;;;;;;;4.60;53.25;101027.22;4954835;28;20172;-70
2022/11/25 02:03:33;;;;;;;10.10;3.83;;;;;;;4.54;53.41;101033.34;5005546;28;20045;-71
2022/11/25 02:06:31;;;;;;;14.77;4.82;;;;;;;4.36;54.21;101034.41;4983690;28;20118;-70
2022/11/25 02:09:03;;;;;;;12.20;3.70;;;;;;;4.61;53.62;101018.56;4974487;28;20053;-71
2022/11/25 02:11:33;;;;;;;10.65;4.88;;;;;;;4.68;53.29;101025.38;4989074;28;20570;-71
2022/11/25 02:14:00;;;;;;;14.50;4.25;;;;;;;4.68;53.25;101014.19;4991325;28;20132;-71
2022/11/25 02:16:26;;;;;;;16.67;4.75;;;;;;;4.75;53.27;101019.25;4993489;28;20060;-70
2022/11/25 02:18:51;;;;;;;19.33;3.92;;;;;;;4.64;53.33;101018.53;4988001;28;20033;-71
2022/11/25 02:21:25;;;;;;;14.90;5.03;;;;;;;4.38;53.99;101022.28;4985979;28;20560;-71
2022/11/25 02:24:01;;;;;;;12.43;3.75;;;;;;;4.74;53.08;101014.91;4976061;28;20033;-71
2022/11/25 02:26:27;;;;;;;17.75;4.45;;;;;;;4.76;52.69;101028.72;5006667;28;20116;-79
2022/11/25 02:28:52;;;;;;;17.02;4.20;;;;;;;4.63;53.18;101032.34;5009070;28;20067;-79
2022/11/25 02:31:19;;;;;;;10.30;3.72;;;;;;;4.79;52.60;101023.50;4990914;28;20091;-79
2022/11/25 02:33:45;;;;;;;14.02;2.88;;;;;;;4.59;53.19;101020.31;5007496;28;20052;-78
2022/11/25 02:36:17;;;;;;;11.15;4.10;;;;;;;4.82;52.25;101012.25;5006876;28;20044;-79
2022/11/25 02:38:49;;;;;;;9.45;4.35;;;;;;;4.86;52.65;101013.06;5013195;28;20044;-79
2022/11/25 02:41:28;;;;;;;19.83;4.60;;;;;;;4.49;53.69;101019.56;5005272;28;20036;-80
2022/11/25 02:43:58;;;;;;;15.05;3.78;;;;;;;4.30;54.33;101026.72;4986285;28;20033;-78
2022/11/25 02:46:25;;;;;;;10.27;3.67;;;;;;;4.62;53.25;101015.09;4992911;28;20122;-68
2022/11/25 02:48:53;;;;;;;10.25;3.88;;;;;;;4.63;53.41;101021.97;4987520;28;20033;-68
2022/11/25 02:51:23;;;;;;;15.20;4.45;;;;;;;4.80;52.81;101016.59;4974002;28;20068;-68
2022/11/25 02:53:49;;;;;;;9.98;3.00;;;;;;;4.70;53.26;101018.47;4981969;28;20126;-69
2022/11/25 02:56:18;;;;;;;9.25;3.50;;;;;;;4.64;53.42;101021.13;4996538;28;20481;-75
2022/11/25 02:58:43;;;;;;;10.50;3.00;;;;;;;4.75;53.02;101019.25;5012529;28;20089;-76
2022/11/25 03:01:09;;;;;;;16.45;3.78;;;;;;;4.83;52.49;101014.81;4996966;28;20600;-65
2022/11/25 03:03:35;;;;;;;13.95;3.58;;;;;;;4.74;52.78;101017.50;4998626;28;20837;-66
2022/11/25 03:06:03;;;;;;;8.27;2.97;;;;;;;4.83;52.63;101007.06;4994199;28;20046;-66
2022/11/25 03:08:29;;;;;;;8.98;3.72;;;;;;;4.81;52.76;101016.56;4996553;28;20038;-65
2022/11/25 03:10:54;;;;;;;19.90;3.25;;;;;;;4.87;52.93;101009.59;4977686;28;20048;-65
2022/11/25 03:13:20;;;;;;;8.98;3.45;;;;;;;4.82;52.80;101007.91;4996104;28;20038;-64
2022/11/25 03:15:47;;;;;;;8.25;3.65;;;;;;;4.65;53.60;101017.63;5009745;28;20090;-65
2022/11/25 03:18:12;;;;;;;7.88;2.13;;;;;;;4.87;52.65;101012.19;5005976;28;20033;-70
2022/11/25 03:20:38;;;;;;;8.88;3.22;;;;;;;5.02;52.35;101012.00;4995832;28;20042;-68
2022/11/25 03:23:05;;;;;;;13.27;2.58;;;;;;;4.95;52.89;101023.34;4995839;28;20037;-69
2022/11/25 03:25:31;;;;;;;11.15;2.20;;;;;;;4.79;53.24;101022.66;5008073;28;20051;-69
2022/11/25 03:27:58;;;;;;;12.10;3.45;;;;;;;5.04;52.54;101010.25;4999985;28;20518;-68
2022/11/25 03:30:26;;;;;;;12.93;3.33;;;;;;;5.01;52.53;101012.84;4996779;28;20115;-67
2022/11/25 03:32:55;;;;;;;15.33;3.37;;;;;;;5.00;52.35;101012.00;4999268;28;20500;-69
2022/11/25 03:35:23;;;;;;;11.50;2.05;;;;;;;4.90;52.59;101010.44;4994768;28;20095;-69
2022/11/25 03:37:49;;;;;;;11.70;3.28;;;;;;;4.98;52.51;101016.34;4996350;28;20021;-69
2022/11/25 03:40:15;;;;;;;8.60;2.22;;;;;;;5.01;52.66;101007.69;5015355;28;20040;-69
2022/11/25 03:42:42;;;;;;;22.73;3.20;;;;;;;4.90;52.71;101007.84;4982551;28;20040;-69
2022/11/25 03:45:11;;;;;;;12.13;2.70;;;;;;;4.60;53.56;101006.50;5013037;28;20051;-69
2022/11/25 03:47:38;;;;;;;7.47;2.58;;;;;;;4.96;52.84;101006.91;4985565;28;20033;-68
2022/11/25 03:50:05;;;;;;;10.23;2.42;;;;;;;4.94;52.84;101006.06;5014818;28;20030;-69
2022/11/25 03:52:30;;;;;;;11.02;2.47;;;;;;;4.79;53.14;101002.78;5003423;28;20045;-68
2022/11/25 03:54:56;;;;;;;6.75;2.13;;;;;;;4.83;53.44;100998.41;5000839;28;20033;-68
2022/11/25 03:57:25;;;;;;;11.93;2.63;;;;;;;4.87;53.43;101014.78;5001257;28;20045;-67
2022/11/25 03:59:51;;;;;;;10.00;2.40;;;;;;;4.72;54.00;101015.81;4997092;28;20104;-69
2022/11/25 04:02:17;;;;;;;8.30;2.35;;;;;;;4.66;54.35;101005.56;4997318;28;20049;-68
2022/11/25 04:04:42;;;;;;;10.95;2.53;;;;;;;4.88;53.61;101016.50;5001498;28;20144;-68
2022/11/25 04:07:08;;;;;;;15.80;2.58;;;;;;;4.77;54.21;101019.22;4986906;28;20132;-68
2022/11/25 04:09:34;;;;;;;5.75;1.73;;;;;;;4.81;53.73;101021.75;5001457;28;23042;-69
2022/11/25 04:14:59;;;;;;;9.90;1.83;;;;;;;4.61;55.10;101019.44;5013823;28;20036;-69
2022/11/25 04:17:24;;;;;;;12.98;3.15;;;;;;;4.63;55.20;101021.97;4999069;28;20054;-70
2022/11/25 04:19:50;;;;;;;9.73;2.30;;;;;;;4.66;55.25;101024.53;5000251;28;20405;-69
2022/11/25 04:22:16;;;;;;;14.27;2.78;;;;;;;4.66;55.31;101021.97;4992554;28;20099;-69
2022/11/25 04:24:44;;;;;;;13.35;2.00;;;;;;;4.63;55.23;101021.97;4995681;28;20037;-69
2022/11/25 04:27:12;;;;;;;7.95;1.98;;;;;;;4.59;55.65;101015.16;4995527;28;20135;-69
2022/11/25 04:29:37;;;;;;;14.93;2.25;;;;;;;4.36;56.72;101024.06;4999713;28;20369;-71
2022/11/25 04:32:04;;;;;;;13.30;3.08;;;;;;;4.48;56.53;101030.81;4998069;28;20041;-68
2022/11/25 04:34:29;;;;;;;7.90;1.73;;;;;;;4.59;56.29;101030.69;5002927;28;20071;-69
2022/11/25 04:36:56;;;;;;;12.20;3.38;;;;;;;4.47;56.85;101028.22;4984492;28;20061;-69
2022/11/25 04:39:21;;;;;;;4.78;2.17;;;;;;;4.59;56.70;101028.09;5006660;28;20029;-70
2022/11/25 04:42:30;;;;;;;7.10;1.75;;;;;;;4.36;57.46;101034.41;4998775;28;20037;-69
2022/11/25 04:44:35;;;;;;;9.52;2.78;;;;;;;4.57;56.54;101032.44;5000937;28;20038;-69
2022/11/25 04:47:01;;;;;;;6.68;2.28;;;;;;;4.47;57.22;101036.84;4996235;28;20034;-68
2022/11/25 04:49:29;;;;;;;9.30;2.38;;;;;;;4.50;57.11;101033.34;4999214;28;20119;-68
2022/11/25 04:51:54;;;;;;;9.60;2.20;;;;;;;4.66;56.72;101034.06;4996005;28;20171;-68
2022/11/25 04:54:20;;;;;;;7.95;2.42;;;;;;;4.50;57.22;101035.94;5001833;28;20093;-67
2022/11/25 04:56:48;;;;;;;12.35;1.95;;;;;;;4.65;56.67;101035.75;5000007;28;20065;-67
2022/11/25 05:01:58;;;;;;;7.38;2.10;;;;;;;4.68;56.80;101040.91;5010593;28;21683;-68
2022/11/25 05:04:34;;;;;;;15.40;2.78;;;;;;;4.39;57.66;101033.50;5001419;28;20056;-68
2022/11/25 05:07:00;;;;;;;9.70;2.13;;;;;;;4.64;56.71;101041.81;4983285;28;20128;-69
2022/11/25 05:09:26;;;;;;;10.38;2.25;;;;;;;4.64;57.05;101032.31;5000083;28;20179;-69
2022/11/25 05:12:18;;;;;;;9.60;2.03;;;;;;;4.37;57.98;101043.88;4990355;28;20515;-69
2022/11/25 05:14:44;;;;;;;8.43;2.03;;;;;;;4.33;58.11;101043.94;4977529;28;20057;-69
2022/11/25 05:17:16;;;;;;;11.18;2.53;;;;;;;4.40;57.84;101036.06;4995150;28;20586;-68
2022/11/25 05:19:42;;;;;;;7.13;2.08;;;;;;;4.67;56.90;101034.00;4994098;28;20029;-69
2022/11/25 05:22:13;;;;;;;12.45;2.10;;;;;;;4.45;57.61;101033.41;4994017;28;20133;-69
2022/11/25 05:24:39;;;;;;;12.23;2.20;;;;;;;4.65;57.28;101046.13;4974101;28;20026;-69
2022/11/25 05:27:06;;;;;;;18.20;2.03;;;;;;;4.46;57.94;101044.66;4977130;28;20138;-69
2022/11/25 05:29:31;;;;;;;8.68;2.28;;;;;;;4.54;57.58;101037.63;4996358;28;20046;-68
2022/11/25 05:31:59;;;;;;;14.20;3.13;;;;;;;4.74;57.20;101042.56;4995728;28;20041;-69
2022/11/25 05:34:25;;;;;;;8.88;2.83;;;;;;;4.66;57.40;101042.66;4994180;28;20042;-69
2022/11/25 05:36:54;;;;;;;10.60;1.80;;;;;;;4.55;57.82;101037.63;4991340;28;20050;-69
2022/11/25 05:39:19;;;;;;;9.23;2.35;;;;;;;4.68;57.48;101040.91;4991600;28;20033;-69
2022/11/25 05:42:11;;;;;;;4.30;1.63;;;;;;;4.66;57.68;101034.91;4991827;28;20045;-70
2022/11/25 05:44:37;;;;;;;10.18;2.58;;;;;;;4.63;57.70;101037.50;4978651;28;20042;-69
2022/11/25 05:47:03;;;;;;;8.98;2.03;;;;;;;4.64;57.68;101034.06;4978405;28;20108;-69
2022/11/25 05:49:28;;;;;;;8.95;2.00;;;;;;;4.75;57.45;101034.78;4979868;28;20040;-70
2022/11/25 05:51:53;;;;;;;8.10;2.28;;;;;;;4.72;57.63;101027.06;4994520;28;20133;-74
2022/11/25 05:54:22;;;;;;;10.10;1.88;;;;;;;4.50;58.28;101031.66;4983461;28;20030;-75
2022/11/25 05:56:47;;;;;;;5.13;2.17;;;;;;;4.69;58.43;101039.19;4982608;28;20038;-74
2022/11/25 05:59:30;;;;;;;7.30;2.60;;;;;;;4.86;57.46;101034.63;4984961;28;20049;-75
2022/11/25 06:02:05;;;;;;;7.28;2.45;;;;;;;4.91;57.31;101042.38;5012846;28;20038;-75
2022/11/25 06:04:31;;;;;;;9.10;2.28;;;;;;;4.35;58.50;101044.78;4998578;28;20546;-69
2022/11/25 06:06:56;;;;;;;9.93;3.05;;;;;;;4.83;57.46;101035.53;4990585;28;20118;-68
2022/11/25 06:09:22;;;;;;;11.82;2.25;;;;;;;4.87;57.14;101044.09;4991135;28;20026;-69
2022/11/25 06:11:51;;;;;;;7.57;2.38;;;;;;;4.48;58.70;101042.91;4987888;28;20085;-70
2022/11/25 06:14:17;;;;;;;3.58;1.60;;;;;;;4.86;57.58;101037.22;4974483;28;20503;-69
2022/11/25 06:16:43;;;;;;;14.57;2.33;;;;;;;4.61;58.11;101042.72;4982213;28;20529;-70
2022/11/25 06:19:20;;;;;;;9.60;2.42;;;;;;;4.77;57.73;101033.03;4993026;28;20836;-70
2022/11/25 06:21:46;;;;;;;13.35;2.83;;;;;;;4.77;57.87;101032.19;4980105;28;20037;-70
2022/11/25 06:24:12;;;;;;;16.35;2.33;;;;;;;4.37;59.12;101043.88;4982162;28;20045;-69
2022/11/25 06:26:41;;;;;;;8.10;1.98;;;;;;;4.47;58.54;101043.75;4980201;28;20356;-69
2022/11/25 06:29:06;;;;;;;14.50;2.25;;;;;;;4.80;57.92;101045.94;4997073;28;20036;-68
2022/11/25 06:31:33;;;;;;;5.65;2.50;;;;;;;4.83;58.43;101045.03;4992125;28;20069;-67
2022/11/25 06:34:09;;;;;;;14.20;2.40;;;;;;;4.90;57.84;101048.41;4990474;28;20642;-69
2022/11/25 06:36:37;;;;;;;6.38;2.10;;;;;;;4.81;58.22;101055.41;4969659;28;20041;-71
2022/11/25 06:39:03;;;;;;;8.00;1.90;;;;;;;5.02;57.38;101058.63;4995696;28;20038;-69
2022/11/25 06:41:28;;;;;;;9.10;2.25;;;;;;;4.99;57.57;101061.28;5000604;28;20324;-67
2022/11/25 06:43:54;;;;;;;10.77;2.17;;;;;;;4.93;58.05;101069.13;5005581;28;20017;-69
2022/11/25 06:46:20;;;;;;;9.02;2.35;;;;;;;5.03;57.84;101083.66;5006873;28;20141;-70
2022/11/25 06:48:45;;;;;;;9.07;1.75;;;;;;;5.09;57.35;101078.38;5008474;28;20037;-67
2022/11/25 06:51:12;;;;;;;15.43;2.58;;;;;;;5.17;57.23;101076.56;5009171;28;20092;-68
2022/11/25 06:53:38;;;;;;;4.45;2.20;;;;;;;5.03;57.41;101083.66;5010292;28;20540;-67
2022/11/25 06:56:24;;;;;;;9.82;2.22;;;;;;;5.16;57.77;101090.38;5010305;28;20045;-68
2022/11/25 06:58:51;;;;;;;5.53;1.77;;;;;;;5.25;56.83;101085.06;5008103;28;20052;-69
2022/11/25 07:01:19;;;;;;;11.00;2.38;;;;;;;5.09;57.44;101093.94;4997470;28;20048;-68
2022/11/25 07:03:46;;;;;;;6.93;1.88;;;;;;;5.31;57.19;101093.63;5011446;28;20220;-69
2022/11/25 07:06:14;;;;;;;7.72;2.17;;;;;;;5.26;57.06;101101.47;5014927;28;20697;-68
2022/11/25 07:08:40;;;;;;;5.93;2.60;;;;;;;5.30;57.19;101097.09;5003103;28;20029;-68
2022/11/25 07:11:21;;;;;;;9.90;2.20;;;;;;;5.42;57.02;101102.13;4982834;28;20041;-68
2022/11/25 07:13:50;;;;;;;10.30;3.42;;;;;;;5.39;57.17;101097.84;5014194;28;20033;-67
2022/11/25 07:16:15;;;;;;;7.35;2.85;;;;;;;5.39;56.97;101103.03;5012763;28;20037;-68
2022/11/25 07:18:41;;;;;;;8.77;2.53;;;;;;;5.44;57.01;101110.72;4987385;28;20421;-69
2022/11/25 07:21:09;;;;;;;7.63;1.77;;;;;;;5.33;57.48;101120.41;5017209;28;20064;-66
2022/11/25 07:23:36;;;;;;;10.55;2.58;;;;;;;5.46;57.34;101124.53;5015893;28;20041;-69
2022/11/25 07:26:05;;;;;;;9.15;2.15;;;;;;;5.43;57.59;101121.97;5014366;28;20042;-68
2022/11/25 07:28:31;;;;;;;7.55;2.60;;;;;;;5.27;57.97;101133.44;5014661;28;20039;-68
2022/11/25 07:31:08;;;;;;;10.10;2.72;;;;;;;5.47;57.50;101126.22;5012352;28;20444;-68
2022/11/25 07:33:34;;;;;;;9.18;1.83;;;;;;;5.50;57.24;101131.34;5016299;28;20076;-68
2022/11/25 07:36:05;;;;;;;7.10;2.38;;;;;;;5.51;57.37;101135.69;4992196;28;20052;-69
2022/11/25 07:38:31;;;;;;;9.00;2.92;;;;;;;5.56;57.17;101139.06;4987412;28;20045;-68
2022/11/25 07:41:05;;;;;;;6.90;2.38;;;;;;;5.59;57.28;101146.81;5015569;28;20049;-67
2022/11/25 07:43:31;;;;;;;8.93;2.83;;;;;;;5.61;57.38;101155.41;5018896;28;20037;-68
2022/11/25 07:46:16;;;;;;;15.88;3.50;;;;;;;5.48;57.90;101148.69;4991266;28;20072;-68
2022/11/25 07:48:42;;;;;;;14.15;3.65;;;;;;;5.55;57.52;101142.53;5018425;28;20033;-69
2022/11/25 07:51:17;;;;;;;9.68;2.47;;;;;;;5.63;57.55;101161.41;5006943;28;20154;-68
2022/11/25 07:53:43;;;;;;;10.02;2.58;;;;;;;5.65;57.38;101151.03;5017809;28;20040;-68
2022/11/25 07:56:09;;;;;;;14.93;3.28;;;;;;;5.72;57.55;101154.38;5016878;28;20072;-68
2022/11/25 07:58:35;;;;;;;10.02;2.67;;;;;;;5.83;57.33;101157.66;4987202;28;20464;-69
2022/11/25 08:01:03;;;;;;;15.00;3.83;;;;;;;5.77;57.08;101168.13;5017011;28;20042;-69
2022/11/25 08:03:30;;;;;;;10.82;3.83;;;;;;;5.82;57.24;101163.75;4996007;28;20043;-69
2022/11/25 08:05:59;;;;;;;8.55;2.83;;;;;;;5.85;57.34;101163.69;5018923;28;20167;-69
2022/11/25 08:08:24;;;;;;;15.27;2.92;;;;;;;5.85;57.32;101163.69;4998633;28;20064;-69
2022/11/25 08:10:52;;;;;;;10.18;3.08;;;;;;;5.87;57.57;101172.31;4996243;28;20192;-68
2022/11/25 08:13:18;;;;;;;16.27;3.45;;;;;;;5.90;57.20;101164.47;5017891;28;20033;-69
2022/11/25 08:15:43;;;;;;;13.20;3.22;;;;;;;5.92;57.14;101165.31;4988739;28;20600;-68
2022/11/25 08:18:09;;;;;;;8.88;2.42;;;;;;;5.90;57.10;101172.25;4996007;28;20505;-69
2022/11/25 08:20:35;;;;;;;7.68;2.90;;;;;;;5.84;57.48;101174.97;4998243;28;20048;-67
2022/11/25 08:23:00;;;;;;;8.25;3.33;;;;;;;5.94;57.69;101168.72;5013894;28;20064;-68
2022/11/25 08:25:26;;;;;;;11.48;2.75;;;;;;;5.90;57.86;101172.25;5009805;28;20158;-68
2022/11/25 08:27:51;;;;;;;8.45;2.42;;;;;;;6.03;57.29;101184.16;4981779;28;20517;-68
2022/11/25 08:30:17;;;;;;;9.10;2.80;;;;;;;6.10;57.22;101184.91;4993947;28;20863;-68
2022/11/25 08:32:42;;;;;;;14.30;3.35;;;;;;;6.06;57.32;101181.53;4995628;28;20486;-68
2022/11/25 08:35:08;;;;;;;11.73;3.55;;;;;;;5.94;57.59;101186.03;5012782;28;20041;-68
2022/11/25 08:37:34;;;;;;;13.10;3.08;;;;;;;6.05;57.34;101190.16;5000275;28;20048;-67
2022/11/25 08:39:59;;;;;;;10.32;3.67;;;;;;;5.94;57.67;101189.50;5011210;28;20029;-68
2022/11/25 08:42:25;;;;;;;13.02;3.63;;;;;;;6.02;57.54;101195.41;5011049;28;20084;-67
2022/11/25 08:44:52;;;;;;;11.25;2.90;;;;;;;6.16;57.07;101189.16;5012022;28;20079;-66
2022/11/25 08:47:18;;;;;;;10.13;2.90;;;;;;;6.14;57.43;101196.97;5008880;28;20038;-67
2022/11/25 08:49:49;;;;;;;8.70;2.88;;;;;;;6.19;57.22;101194.28;4997680;28;20026;-68
2022/11/25 08:52:14;;;;;;;8.75;3.42;;;;;;;6.27;57.04;101193.28;4999880;28;20045;-69
2022/11/25 08:54:40;;;;;;;14.38;4.05;;;;;;;6.12;57.58;101200.47;5012705;28;20049;-71
2022/11/25 08:57:05;;;;;;;20.52;9.18;;;;;;;6.29;57.25;101207.13;4995459;28;20042;-69
2022/11/25 08:59:31;;;;;;;14.88;4.30;;;;;;;6.36;57.10;101210.47;4994968;28;20427;-70
2022/11/25 09:01:57;;;;;;;12.20;3.67;;;;;;;6.40;56.98;101201.75;4995604;28;20588;-71
2022/11/25 09:04:22;;;;;;;15.50;4.05;;;;;;;6.47;57.06;101199.91;5013144;28;20397;-71
2022/11/25 09:06:48;;;;;;;9.98;2.90;;;;;;;6.61;56.61;101205.69;5009774;28;20088;-70
2022/11/25 09:09:13;;;;;;;9.13;3.42;;;;;;;6.40;57.31;101204.34;4986053;28;20137;-68
2022/11/25 09:11:39;;;;;;;13.50;3.70;;;;;;;6.55;56.99;101207.53;4981694;28;20045;-68
2022/11/25 09:14:04;;;;;;;8.35;3.55;;;;;;;6.69;56.90;101206.44;4997665;28;20395;-70
2022/11/25 09:16:29;;;;;;;11.52;3.20;;;;;;;6.87;56.57;101210.41;4997929;28;20049;-70
2022/11/25 09:18:55;;;;;;;8.98;3.53;;;;;;;6.87;56.35;101222.56;4983160;28;20715;-68
2022/11/25 09:21:23;;;;;;;12.82;3.58;;;;;;;6.97;56.65;101236.22;5014021;28;20049;-71
2022/11/25 09:23:53;;;;;;;10.65;3.55;;;;;;;7.10;56.27;101233.34;5010478;28;20491;-70
2022/11/25 09:26:27;;;;;;;9.85;3.88;;;;;;;6.82;56.99;101233.03;4980425;28;20130;-72
2022/11/25 09:28:54;;;;;;;8.68;3.72;;;;;;;7.04;56.64;101233.50;5011119;28;20678;-72
2022/11/25 09:31:20;;;;;;;9.50;3.25;;;;;;;7.08;56.65;101239.47;4993319;28;20037;-72
2022/11/25 09:33:46;;;;;;;8.95;3.45;;;;;;;6.96;56.96;101239.72;4993886;28;20044;-72
2022/11/25 09:36:16;;;;;;;7.57;3.25;;;;;;;6.41;57.91;101247.59;5009812;28;20136;-71
2022/11/25 09:38:45;;;;;;;13.52;4.07;;;;;;;6.66;57.67;101249.75;5010571;28;20037;-72
2022/11/25 09:47:50;;;;;;;11.60;3.60;;;;;;;6.94;57.40;101265.72;4994170;28;20072;-70
2022/11/25 09:50:15;;;;;;;;;;;;;;;6.41;58.39;101263.16;4999883;28;20044;-75
2022/11/25 09:52:57;;;;;;;9.52;4.22;;;;;;;6.50;59.02;101270.81;4984215;28;20918;-75
2022/11/25 09:55:27;;;;;;;10.25;3.25;;;;;;;6.82;57.90;101272.00;5011073;28;20045;-69
2022/11/25 09:58:28;;;;;;;13.98;3.92;;;;;;;6.49;58.35;101271.69;4995988;28;20469;-68
2022/11/25 10:00:54;;;;;;;12.33;4.10;;;;;;;7.10;57.82;101276.69;5005912;28;20060;-69
2022/11/25 10:03:26;;;;;;;14.45;4.03;;;;;;;7.33;56.86;101282.31;5011310;28;20515;-69
2022/11/25 10:06:05;;;;;;;12.85;4.25;;;;;;;6.93;57.62;101276.13;5009071;28;20041;-69
2022/11/25 10:08:36;;;;;;;10.50;4.18;;;;;;;7.47;56.42;101283.78;5007810;28;20342;-69
2022/11/25 10:11:20;;;;;;;20.80;5.25;;;;;;;7.26;56.99;101280.69;5011020;28;20055;-71
2022/11/25 10:14:08;;;;;;;8.63;3.35;;;;;;;7.17;57.67;101283.47;4985396;28;20113;-70
2022/11/25 10:16:48;;;;;;;14.95;4.18;;;;;;;7.36;57.29;101275.34;5009391;28;20041;-70
2022/11/25 10:19:17;;;;;;;11.70;4.47;;;;;;;7.68;56.38;101279.91;4994331;28;20056;-69
2022/11/25 10:21:45;;;;;;;12.77;3.92;;;;;;;7.56;56.45;101283.63;5006827;28;20037;-69
2022/11/25 10:24:16;;;;;;;12.55;3.83;;;;;;;7.39;56.55;101276.13;5007902;28;20042;-70
2022/11/25 10:26:52;;;;;;;12.18;3.92;;;;;;;7.46;57.01;101282.91;5009411;28;20136;-69
2022/11/25 10:29:29;;;;;;;10.70;4.53;;;;;;;7.45;57.52;101280.34;4994824;28;20029;-69
2022/11/25 10:32:19;;;;;;;10.63;3.92;;;;;;;7.77;56.76;101279.69;4979375;28;20049;-69
2022/11/25 10:34:51;;;;;;;11.90;4.68;;;;;;;8.46;54.58;101278.09;4994673;28;20589;-69
2022/11/25 10:37:43;;;;;;;7.88;5.25;;;;;;;8.30;54.85;101288.03;5010332;28;20262;-68
2022/11/25 10:40:16;;;;;;;8.68;4.05;;;;;;;8.42;54.14;101281.66;4989204;28;20172;-69
2022/11/25 10:42:42;;;;;;;13.80;4.45;;;;;;;8.34;54.78;101288.81;4976102;28;20068;-69
2022/11/25 10:45:09;;;;;;;11.85;3.53;;;;;;;7.67;55.65;101286.84;5008747;28;20069;-69
2022/11/25 10:47:37;;;;;;;10.75;3.92;;;;;;;8.47;54.80;101295.44;5009378;28;20757;-70
2022/11/25 10:50:11;;;;;;;6.20;3.97;;;;;;;8.49;54.07;101292.78;5010932;28;20465;-69
2022/11/25 10:52:49;;;;;;;11.70;3.90;;;;;;;7.73;54.90;101302.34;5011355;28;20021;-69
2022/11/25 10:55:34;;;;;;;11.35;4.18;;;;;;;7.26;57.01;101306.69;5011498;28;20391;-69
2022/11/25 10:58:26;;;;;;;12.65;3.85;;;;;;;7.69;56.16;101303.28;4996280;28;20037;-69
2022/11/25 11:01:20;;;;;;;9.00;4.13;;;;;;;7.07;57.72;101305.34;5008019;28;20061;-69
2022/11/25 11:03:52;;;;;;;7.72;3.95;;;;;;;7.37;56.91;101308.25;4994167;28;20025;-68
2022/11/25 11:06:36;;;;;;;9.25;3.63;;;;;;;7.48;56.92;101306.28;4990867;28;20115;-68
2022/11/25 11:09:03;;;;;;;10.15;4.28;;;;;;;7.59;56.45;101306.94;4995036;28;20037;-69
2022/11/25 11:11:28;;;;;;;7.28;4.53;;;;;;;7.91;55.46;101313.22;4995305;28;20053;-71
2022/11/25 11:14:12;;;;;;;7.25;3.90;;;;;;;7.32;57.14;101313.53;5008089;28;20453;-69
2022/11/25 11:16:51;;;;;;;10.00;5.20;;;;;;;7.64;57.24;101312.91;4991358;28;20071;-68
2022/11/25 11:19:28;;;;;;;15.50;4.70;;;;;;;7.93;56.70;101319.25;5010283;28;20060;-68
2022/11/25 11:21:55;;;;;;;10.18;4.13;;;;;;;7.86;56.42;101322.88;4992536;28;20072;-68
2022/11/25 11:24:41;;;;;;;8.23;4.45;;;;;;;8.05;55.28;101324.19;5008711;28;20398;-68
2022/11/25 11:27:19;;;;;;;6.50;3.35;;;;;;;8.73;54.41;101317.41;5010623;28;20098;-68
2022/11/25 11:29:45;;;;;;;18.13;4.55;;;;;;;8.72;53.70;101320.94;5009148;28;20574;-68
2022/11/25 11:32:24;;;;;;;11.60;3.72;;;;;;;7.92;55.73;101335.75;5008506;28;20418;-68
2022/11/25 11:34:55;;;;;;;12.55;3.63;;;;;;;8.45;54.69;101333.69;4985395;28;20570;-67
2022/11/25 11:37:43;;;;;;;13.02;4.13;;;;;;;8.88;53.72;101342.25;4986930;28;20434;-69
2022/11/25 11:40:39;;;;;;;10.98;3.80;;;;;;;7.59;55.57;101340.78;4995005;28;20040;-68
2022/11/25 11:43:05;;;;;;;15.82;3.53;;;;;;;7.96;55.62;101345.22;5009775;28;20472;-68
2022/11/25 11:45:52;;;;;;;9.50;3.05;;;;;;;7.57;56.37;101342.53;4991281;28;20082;-68
2022/11/25 11:48:20;;;;;;;13.15;3.22;;;;;;;7.63;56.37;101350.22;5009059;28;20030;-68
2022/11/25 11:50:54;;;;;;;6.97;2.97;;;;;;;7.97;55.79;101348.69;4992997;28;20061;-68
2022/11/25 11:53:27;;;;;;;13.85;4.10;;;;;;;7.81;55.32;101341.19;4999798;28;20025;-68
2022/11/25 11:55:59;;;;;;;4.82;2.92;;;;;;;7.45;57.21;101347.97;5010721;28;20042;-69
2022/11/25 11:58:43;;;;;;;8.68;3.28;;;;;;;7.66;56.32;101346.72;4997395;28;20037;-69